FAB2300 SBPJ-SBBR
Flight info
| Callsign | FAB2300 |
|---|---|
| Flight time | 1h 47m |
| Altitude | FL100 |
| Route | DCT 1056S04816W DCT 1517S04758W DCT |
| Aircraft | E110/L-S/N |
Departure
| Time | 2026-04-17 10:22 |
|---|---|
| Airport | Brigadeiro Lysias Rodrigues Airport (SBPJ) |
Arrival
| Time | 2026-04-17 12:10 |
|---|---|
| Airport | Presidente Juscelino Kubitschek International Airport (SBBR) |
| Time | Latitude | Longitude | Altitude | Speed | Heading |
|---|---|---|---|---|---|
| 2026-04-17 10:00 | -10.29419 | -48.35847 | 746 ft | 0 kts | 213° |
| 2026-04-17 10:15 | -10.29405 | -48.35837 | 745 ft | 3 kts | 212° |
| 2026-04-17 10:15 | -10.29388 | -48.35827 | 746 ft | 3 kts | 210° |
| 2026-04-17 10:15 | -10.29372 | -48.35819 | 745 ft | 2 kts | 202° |
| 2026-04-17 10:15 | -10.29362 | -48.35816 | 746 ft | 1 kts | 181° |
| 2026-04-17 10:16 | -10.29355 | -48.35819 | 746 ft | 1 kts | 139° |
| 2026-04-17 10:16 | -10.29351 | -48.35824 | 744 ft | 0 kts | 125° |
| 2026-04-17 10:16 | -10.29354 | -48.35819 | 746 ft | 2 kts | 125° |
| 2026-04-17 10:16 | -10.29366 | -48.35805 | 745 ft | 3 kts | 182° |
| 2026-04-17 10:17 | -10.29359 | -48.35816 | 746 ft | 4 kts | 349° |
| 2026-04-17 10:17 | -10.29320 | -48.35812 | 746 ft | 7 kts | 33° |
| 2026-04-17 10:17 | -10.29275 | -48.35782 | 746 ft | 8 kts | 33° |
| 2026-04-17 10:17 | -10.29234 | -48.35755 | 745 ft | 0 kts | 33° |
| 2026-04-17 10:18 | -10.29230 | -48.35753 | 745 ft | 3 kts | 33° |
| 2026-04-17 10:18 | -10.29196 | -48.35730 | 744 ft | 9 kts | 33° |
| 2026-04-17 10:19 | -10.29136 | -48.35735 | 745 ft | 12 kts | 320° |
| 2026-04-17 10:19 | -10.29079 | -48.35813 | 745 ft | 16 kts | 304° |
| 2026-04-17 10:19 | -10.29010 | -48.35920 | 745 ft | 20 kts | 303° |
| 2026-04-17 10:19 | -10.28930 | -48.36043 | 745 ft | 22 kts | 303° |
| 2026-04-17 10:20 | -10.28847 | -48.36170 | 747 ft | 23 kts | 303° |
| 2026-04-17 10:20 | -10.28756 | -48.36309 | 747 ft | 25 kts | 303° |
| 2026-04-17 10:20 | -10.28660 | -48.36454 | 749 ft | 25 kts | 304° |
| 2026-04-17 10:20 | -10.28589 | -48.36602 | 748 ft | 19 kts | 254° |
| 2026-04-17 10:21 | -10.28541 | -48.36640 | 747 ft | 13 kts | 86° |
| 2026-04-17 10:21 | -10.28559 | -48.36608 | 747 ft | 21 kts | 124° |
| 2026-04-17 10:21 | -10.28801 | -48.36237 | 755 ft | 99 kts | 121° |
| 2026-04-17 10:21 | -10.29228 | -48.35556 | 927 ft | 125 kts | 122° |
| 2026-04-17 10:22 | -10.29712 | -48.34786 | 1188 ft | 134 kts | 124° |
| 2026-04-17 10:22 | -10.30260 | -48.33995 | 1423 ft | 140 kts | 125° |
| 2026-04-17 10:22 | -10.30808 | -48.33165 | 1659 ft | 144 kts | 124° |
| 2026-04-17 10:22 | -10.31361 | -48.32311 | 1891 ft | 146 kts | 124° |
| 2026-04-17 10:23 | -10.31926 | -48.31454 | 2123 ft | 147 kts | 127° |
| 2026-04-17 10:23 | -10.32741 | -48.30853 | 2373 ft | 148 kts | 160° |
| 2026-04-17 10:23 | -10.33742 | -48.30710 | 2613 ft | 145 kts | 176° |
| 2026-04-17 10:23 | -10.34755 | -48.30653 | 2851 ft | 148 kts | 174° |
| 2026-04-17 10:24 | -10.35782 | -48.30591 | 3136 ft | 148 kts | 175° |
| 2026-04-17 10:24 | -10.36809 | -48.30535 | 3418 ft | 148 kts | 175° |
| 2026-04-17 10:24 | -10.37837 | -48.30477 | 3699 ft | 148 kts | 174° |
| 2026-04-17 10:24 | -10.38866 | -48.30420 | 3983 ft | 148 kts | 174° |
| 2026-04-17 10:25 | -10.39895 | -48.30362 | 4269 ft | 149 kts | 174° |
| 2026-04-17 10:25 | -10.40924 | -48.30305 | 4560 ft | 148 kts | 173° |
| 2026-04-17 10:25 | -10.41955 | -48.30246 | 4845 ft | 149 kts | 173° |
| 2026-04-17 10:25 | -10.42990 | -48.30189 | 5127 ft | 150 kts | 173° |
| 2026-04-17 10:26 | -10.44031 | -48.30130 | 5412 ft | 150 kts | 172° |
| 2026-04-17 10:26 | -10.45074 | -48.30072 | 5700 ft | 150 kts | 172° |
| 2026-04-17 10:26 | -10.46116 | -48.30014 | 5993 ft | 150 kts | 172° |
| 2026-04-17 10:26 | -10.47157 | -48.29955 | 6282 ft | 150 kts | 171° |
| 2026-04-17 10:27 | -10.48195 | -48.29897 | 6556 ft | 149 kts | 172° |
| 2026-04-17 10:27 | -10.49228 | -48.29839 | 6831 ft | 149 kts | 171° |
| 2026-04-17 10:27 | -10.50256 | -48.29781 | 7110 ft | 148 kts | 172° |
| 2026-04-17 10:27 | -10.51278 | -48.29724 | 7389 ft | 147 kts | 172° |
| 2026-04-17 10:28 | -10.52297 | -48.29667 | 7672 ft | 146 kts | 173° |
| 2026-04-17 10:28 | -10.53310 | -48.29610 | 7941 ft | 147 kts | 173° |
| 2026-04-17 10:28 | -10.54333 | -48.29553 | 8183 ft | 148 kts | 173° |
| 2026-04-17 10:28 | -10.55365 | -48.29495 | 8423 ft | 149 kts | 173° |
| 2026-04-17 10:29 | -10.56403 | -48.29437 | 8671 ft | 150 kts | 174° |
| 2026-04-17 10:29 | -10.57444 | -48.29378 | 8916 ft | 150 kts | 174° |
| 2026-04-17 10:29 | -10.58482 | -48.29320 | 9165 ft | 149 kts | 174° |
| 2026-04-17 10:29 | -10.59516 | -48.29263 | 9413 ft | 149 kts | 174° |
| 2026-04-17 10:30 | -10.60544 | -48.29205 | 9670 ft | 148 kts | 175° |
| 2026-04-17 10:30 | -10.61567 | -48.29147 | 9883 ft | 149 kts | 175° |
| 2026-04-17 10:30 | -10.62648 | -48.29087 | 9899 ft | 162 kts | 175° |
| 2026-04-17 10:30 | -10.63801 | -48.29024 | 9905 ft | 170 kts | 175° |
| 2026-04-17 10:31 | -10.64995 | -48.28957 | 9910 ft | 174 kts | 175° |
| 2026-04-17 10:31 | -10.66217 | -48.28889 | 9914 ft | 178 kts | 175° |
| 2026-04-17 10:31 | -10.67469 | -48.28818 | 9915 ft | 184 kts | 175° |
| 2026-04-17 10:31 | -10.68768 | -48.28746 | 9913 ft | 190 kts | 175° |
| 2026-04-17 10:32 | -10.70106 | -48.28671 | 9917 ft | 196 kts | 175° |
| 2026-04-17 10:32 | -10.71480 | -48.28596 | 9915 ft | 200 kts | 175° |
| 2026-04-17 10:32 | -10.72875 | -48.28518 | 9911 ft | 203 kts | 175° |
| 2026-04-17 10:32 | -10.74284 | -48.28439 | 9914 ft | 204 kts | 175° |
| 2026-04-17 10:33 | -10.75702 | -48.28360 | 9915 ft | 205 kts | 175° |
| 2026-04-17 10:33 | -10.77125 | -48.28280 | 9916 ft | 205 kts | 175° |
| 2026-04-17 10:33 | -10.78549 | -48.28200 | 9913 ft | 206 kts | 175° |
| 2026-04-17 10:33 | -10.79974 | -48.28121 | 9917 ft | 206 kts | 175° |
| 2026-04-17 10:34 | -10.81400 | -48.28039 | 9914 ft | 206 kts | 175° |
| 2026-04-17 10:34 | -10.82827 | -48.27959 | 9916 ft | 206 kts | 175° |
| 2026-04-17 10:34 | -10.84252 | -48.27880 | 9915 ft | 206 kts | 175° |
| 2026-04-17 10:34 | -10.85679 | -48.27800 | 9921 ft | 206 kts | 175° |
| 2026-04-17 10:35 | -10.87107 | -48.27719 | 9919 ft | 206 kts | 175° |
| 2026-04-17 10:35 | -10.88539 | -48.27639 | 9918 ft | 206 kts | 175° |
| 2026-04-17 10:35 | -10.89966 | -48.27559 | 9916 ft | 206 kts | 175° |
| 2026-04-17 10:35 | -10.91395 | -48.27479 | 9917 ft | 206 kts | 175° |
| 2026-04-17 10:36 | -10.92823 | -48.27398 | 9916 ft | 206 kts | 176° |
| 2026-04-17 10:36 | -10.94250 | -48.27317 | 9917 ft | 206 kts | 175° |
| 2026-04-17 10:36 | -10.95675 | -48.27214 | 9912 ft | 206 kts | 174° |
| 2026-04-17 10:36 | -10.97100 | -48.27111 | 9915 ft | 206 kts | 175° |
| 2026-04-17 10:37 | -10.98528 | -48.27011 | 9915 ft | 206 kts | 175° |
| 2026-04-17 10:37 | -10.99954 | -48.26912 | 9915 ft | 206 kts | 175° |
| 2026-04-17 10:37 | -11.01382 | -48.26813 | 9914 ft | 206 kts | 175° |
| 2026-04-17 10:37 | -11.02808 | -48.26713 | 9915 ft | 206 kts | 175° |
| 2026-04-17 10:38 | -11.04233 | -48.26614 | 9914 ft | 206 kts | 175° |
| 2026-04-17 10:38 | -11.05658 | -48.26515 | 9914 ft | 206 kts | 175° |
| 2026-04-17 10:38 | -11.07085 | -48.26415 | 9914 ft | 206 kts | 175° |
| 2026-04-17 10:38 | -11.08511 | -48.26316 | 9916 ft | 206 kts | 175° |
| 2026-04-17 10:39 | -11.09935 | -48.26217 | 9915 ft | 206 kts | 175° |
| 2026-04-17 10:39 | -11.11362 | -48.26117 | 9915 ft | 206 kts | 175° |
| 2026-04-17 10:39 | -11.12783 | -48.26018 | 9912 ft | 206 kts | 175° |
| 2026-04-17 10:39 | -11.14209 | -48.25919 | 9909 ft | 205 kts | 175° |
| 2026-04-17 10:40 | -11.15631 | -48.25820 | 9909 ft | 205 kts | 175° |
| 2026-04-17 10:40 | -11.17054 | -48.25721 | 9910 ft | 205 kts | 175° |
| 2026-04-17 10:40 | -11.18476 | -48.25621 | 9907 ft | 205 kts | 175° |
| 2026-04-17 10:40 | -11.19899 | -48.25522 | 9912 ft | 205 kts | 175° |
| 2026-04-17 10:41 | -11.21319 | -48.25423 | 9913 ft | 205 kts | 175° |
| 2026-04-17 10:41 | -11.22740 | -48.25324 | 9912 ft | 205 kts | 175° |
| 2026-04-17 10:41 | -11.24161 | -48.25225 | 9909 ft | 205 kts | 175° |
| 2026-04-17 10:41 | -11.25580 | -48.25126 | 9908 ft | 205 kts | 175° |
| 2026-04-17 10:42 | -11.27000 | -48.25027 | 9911 ft | 205 kts | 175° |
| 2026-04-17 10:42 | -11.28420 | -48.24928 | 9909 ft | 205 kts | 175° |
| 2026-04-17 10:42 | -11.29840 | -48.24828 | 9907 ft | 205 kts | 175° |
| 2026-04-17 10:42 | -11.31260 | -48.24730 | 9910 ft | 205 kts | 175° |
| 2026-04-17 10:43 | -11.32682 | -48.24630 | 9909 ft | 206 kts | 175° |
| 2026-04-17 10:43 | -11.34106 | -48.24531 | 9911 ft | 206 kts | 175° |
| 2026-04-17 10:43 | -11.35532 | -48.24432 | 9908 ft | 206 kts | 175° |
| 2026-04-17 10:43 | -11.36957 | -48.24332 | 9905 ft | 206 kts | 175° |
| 2026-04-17 10:44 | -11.38383 | -48.24232 | 9904 ft | 206 kts | 175° |
| 2026-04-17 10:44 | -11.39809 | -48.24133 | 9905 ft | 206 kts | 175° |
| 2026-04-17 10:44 | -11.41233 | -48.24034 | 9904 ft | 206 kts | 175° |
| 2026-04-17 10:44 | -11.42657 | -48.23934 | 9907 ft | 206 kts | 175° |
| 2026-04-17 10:45 | -11.44081 | -48.23835 | 9904 ft | 205 kts | 175° |
| 2026-04-17 10:45 | -11.45502 | -48.23735 | 9904 ft | 205 kts | 175° |
| 2026-04-17 10:45 | -11.46928 | -48.23636 | 9903 ft | 206 kts | 175° |
| 2026-04-17 10:45 | -11.48351 | -48.23536 | 9903 ft | 206 kts | 175° |
| 2026-04-17 10:46 | -11.49775 | -48.23437 | 9905 ft | 206 kts | 175° |
| 2026-04-17 10:46 | -11.51199 | -48.23337 | 9902 ft | 206 kts | 175° |
| 2026-04-17 10:46 | -11.52624 | -48.23237 | 9903 ft | 206 kts | 175° |
| 2026-04-17 10:46 | -11.54051 | -48.23138 | 9904 ft | 206 kts | 175° |
| 2026-04-17 10:47 | -11.55476 | -48.23039 | 9904 ft | 206 kts | 174° |
| 2026-04-17 10:47 | -11.56900 | -48.22939 | 9904 ft | 206 kts | 175° |
| 2026-04-17 10:47 | -11.58327 | -48.22839 | 9902 ft | 206 kts | 175° |
| 2026-04-17 10:47 | -11.59753 | -48.22739 | 9904 ft | 206 kts | 175° |
| 2026-04-17 10:48 | -11.61180 | -48.22640 | 9903 ft | 206 kts | 175° |
| 2026-04-17 10:48 | -11.62604 | -48.22540 | 9904 ft | 206 kts | 175° |
| 2026-04-17 10:48 | -11.64031 | -48.22440 | 9905 ft | 206 kts | 175° |
| 2026-04-17 10:48 | -11.65455 | -48.22340 | 9906 ft | 206 kts | 174° |
| 2026-04-17 10:49 | -11.66881 | -48.22240 | 9908 ft | 206 kts | 175° |
| 2026-04-17 10:49 | -11.68308 | -48.22141 | 9908 ft | 206 kts | 175° |
| 2026-04-17 10:49 | -11.69735 | -48.22041 | 9909 ft | 206 kts | 175° |
| 2026-04-17 10:49 | -11.71161 | -48.21941 | 9907 ft | 206 kts | 175° |
| 2026-04-17 10:50 | -11.72589 | -48.21841 | 9908 ft | 206 kts | 175° |
| 2026-04-17 10:50 | -11.74014 | -48.21741 | 9904 ft | 206 kts | 174° |
| 2026-04-17 10:50 | -11.75441 | -48.21641 | 9907 ft | 206 kts | 175° |
| 2026-04-17 10:50 | -11.76867 | -48.21542 | 9905 ft | 206 kts | 174° |
| 2026-04-17 10:51 | -11.78291 | -48.21442 | 9906 ft | 206 kts | 174° |
| 2026-04-17 10:51 | -11.79720 | -48.21342 | 9907 ft | 207 kts | 175° |
| 2026-04-17 10:51 | -11.81154 | -48.21242 | 9905 ft | 207 kts | 174° |
| 2026-04-17 10:51 | -11.82586 | -48.21141 | 9904 ft | 207 kts | 174° |
| 2026-04-17 10:52 | -11.84019 | -48.21041 | 9903 ft | 206 kts | 174° |
| 2026-04-17 10:52 | -11.85450 | -48.20940 | 9905 ft | 207 kts | 174° |
| 2026-04-17 10:52 | -11.86880 | -48.20841 | 9905 ft | 206 kts | 174° |
| 2026-04-17 10:52 | -11.88312 | -48.20740 | 9904 ft | 207 kts | 174° |
| 2026-04-17 10:53 | -11.89743 | -48.20639 | 9908 ft | 207 kts | 174° |
| 2026-04-17 10:53 | -11.91176 | -48.20540 | 9905 ft | 207 kts | 174° |
| 2026-04-17 10:53 | -11.92604 | -48.20439 | 9909 ft | 207 kts | 174° |
| 2026-04-17 10:53 | -11.94037 | -48.20338 | 9907 ft | 206 kts | 174° |
| 2026-04-17 10:54 | -11.95466 | -48.20239 | 9908 ft | 206 kts | 174° |
| 2026-04-17 10:54 | -11.96893 | -48.20139 | 9908 ft | 206 kts | 174° |
| 2026-04-17 10:54 | -11.98321 | -48.20038 | 9908 ft | 206 kts | 175° |
| 2026-04-17 10:54 | -11.99748 | -48.19939 | 9908 ft | 206 kts | 174° |
| 2026-04-17 10:55 | -12.01178 | -48.19838 | 9905 ft | 207 kts | 174° |
| 2026-04-17 10:55 | -12.02610 | -48.19737 | 9909 ft | 206 kts | 174° |
| 2026-04-17 10:55 | -12.04040 | -48.19637 | 9908 ft | 207 kts | 174° |
| 2026-04-17 10:55 | -12.05472 | -48.19537 | 9905 ft | 207 kts | 174° |
| 2026-04-17 10:56 | -12.06902 | -48.19436 | 9908 ft | 206 kts | 174° |
| 2026-04-17 10:56 | -12.08333 | -48.19336 | 9908 ft | 206 kts | 174° |
| 2026-04-17 10:56 | -12.09760 | -48.19237 | 9909 ft | 206 kts | 174° |
| 2026-04-17 10:56 | -12.11190 | -48.19135 | 9908 ft | 207 kts | 174° |
| 2026-04-17 10:57 | -12.12624 | -48.19035 | 9905 ft | 207 kts | 174° |
| 2026-04-17 10:57 | -12.14054 | -48.18934 | 9911 ft | 207 kts | 174° |
| 2026-04-17 10:57 | -12.15486 | -48.18833 | 9907 ft | 207 kts | 174° |
| 2026-04-17 10:57 | -12.16916 | -48.18734 | 9910 ft | 206 kts | 174° |
| 2026-04-17 10:58 | -12.18349 | -48.18633 | 9909 ft | 207 kts | 174° |
| 2026-04-17 10:58 | -12.19786 | -48.18532 | 9911 ft | 208 kts | 174° |
| 2026-04-17 10:58 | -12.21225 | -48.18431 | 9908 ft | 208 kts | 174° |
| 2026-04-17 10:58 | -12.22663 | -48.18330 | 9903 ft | 207 kts | 175° |
| 2026-04-17 10:59 | -12.24095 | -48.18230 | 9906 ft | 207 kts | 174° |
| 2026-04-17 10:59 | -12.25528 | -48.18128 | 9907 ft | 207 kts | 175° |
| 2026-04-17 10:59 | -12.26958 | -48.18028 | 9907 ft | 206 kts | 174° |
| 2026-04-17 10:59 | -12.28390 | -48.17928 | 9909 ft | 206 kts | 175° |
| 2026-04-17 11:00 | -12.29822 | -48.17826 | 9912 ft | 207 kts | 174° |
| 2026-04-17 11:00 | -12.31264 | -48.17726 | 9909 ft | 208 kts | 175° |
| 2026-04-17 11:00 | -12.32704 | -48.17625 | 9911 ft | 207 kts | 175° |
| 2026-04-17 11:00 | -12.34141 | -48.17523 | 9907 ft | 207 kts | 175° |
| 2026-04-17 11:01 | -12.35573 | -48.17423 | 9910 ft | 207 kts | 175° |
| 2026-04-17 11:01 | -12.37007 | -48.17321 | 9911 ft | 207 kts | 175° |
| 2026-04-17 11:01 | -12.38440 | -48.17220 | 9910 ft | 207 kts | 175° |
| 2026-04-17 11:01 | -12.39869 | -48.17120 | 9910 ft | 206 kts | 175° |
| 2026-04-17 11:02 | -12.41298 | -48.17019 | 9913 ft | 206 kts | 175° |
| 2026-04-17 11:02 | -12.42726 | -48.16920 | 9909 ft | 206 kts | 175° |
| 2026-04-17 11:02 | -12.44152 | -48.16820 | 9910 ft | 206 kts | 174° |
| 2026-04-17 11:02 | -12.45579 | -48.16718 | 9916 ft | 206 kts | 175° |
| 2026-04-17 11:03 | -12.47005 | -48.16618 | 9912 ft | 206 kts | 175° |
| 2026-04-17 11:03 | -12.48431 | -48.16519 | 9913 ft | 206 kts | 175° |
| 2026-04-17 11:03 | -12.49854 | -48.16417 | 9911 ft | 206 kts | 175° |
| 2026-04-17 11:03 | -12.51280 | -48.16316 | 9914 ft | 206 kts | 175° |
| 2026-04-17 11:04 | -12.52705 | -48.16216 | 9911 ft | 206 kts | 175° |
| 2026-04-17 11:04 | -12.54132 | -48.16116 | 9912 ft | 206 kts | 175° |
| 2026-04-17 11:04 | -12.55559 | -48.16015 | 9912 ft | 206 kts | 175° |
| 2026-04-17 11:04 | -12.56981 | -48.15915 | 9915 ft | 206 kts | 175° |
| 2026-04-17 11:05 | -12.58407 | -48.15816 | 9914 ft | 206 kts | 175° |
| 2026-04-17 11:05 | -12.59834 | -48.15715 | 9915 ft | 206 kts | 175° |
| 2026-04-17 11:05 | -12.61260 | -48.15614 | 9910 ft | 205 kts | 175° |
| 2026-04-17 11:05 | -12.62682 | -48.15515 | 9915 ft | 205 kts | 175° |
| 2026-04-17 11:06 | -12.64106 | -48.15413 | 9911 ft | 206 kts | 175° |
| 2026-04-17 11:06 | -12.65531 | -48.15313 | 9909 ft | 206 kts | 175° |
| 2026-04-17 11:06 | -12.66953 | -48.15212 | 9909 ft | 205 kts | 175° |
| 2026-04-17 11:06 | -12.68375 | -48.15114 | 9915 ft | 205 kts | 175° |
| 2026-04-17 11:07 | -12.69799 | -48.15013 | 9914 ft | 206 kts | 175° |
| 2026-04-17 11:07 | -12.71222 | -48.14913 | 9914 ft | 205 kts | 175° |
| 2026-04-17 11:07 | -12.72643 | -48.14811 | 9919 ft | 206 kts | 175° |
| 2026-04-17 11:07 | -12.74066 | -48.14710 | 9917 ft | 205 kts | 175° |
| 2026-04-17 11:08 | -12.75484 | -48.14613 | 9919 ft | 204 kts | 175° |
| 2026-04-17 11:08 | -12.76903 | -48.14511 | 9918 ft | 205 kts | 175° |
| 2026-04-17 11:08 | -12.78326 | -48.14411 | 9925 ft | 206 kts | 175° |
| 2026-04-17 11:08 | -12.79751 | -48.14311 | 9915 ft | 205 kts | 175° |
| 2026-04-17 11:09 | -12.81173 | -48.14210 | 9918 ft | 205 kts | 175° |
| 2026-04-17 11:09 | -12.82592 | -48.14110 | 9915 ft | 205 kts | 175° |
| 2026-04-17 11:09 | -12.84014 | -48.14010 | 9917 ft | 205 kts | 175° |
| 2026-04-17 11:10 | -12.86857 | -48.13810 | 9920 ft | 204 kts | 175° |
| 2026-04-17 11:10 | -12.88269 | -48.13709 | 9918 ft | 204 kts | 175° |
| 2026-04-17 11:10 | -12.89683 | -48.13608 | 9919 ft | 204 kts | 175° |
| 2026-04-17 11:10 | -12.91095 | -48.13510 | 9918 ft | 204 kts | 175° |
| 2026-04-17 11:11 | -12.92508 | -48.13411 | 9919 ft | 204 kts | 175° |
| 2026-04-17 11:11 | -12.93921 | -48.13310 | 9919 ft | 204 kts | 176° |
| 2026-04-17 11:11 | -12.95337 | -48.13209 | 9919 ft | 204 kts | 176° |
| 2026-04-17 11:11 | -12.96753 | -48.13110 | 9921 ft | 205 kts | 176° |
| 2026-04-17 11:12 | -12.98173 | -48.13009 | 9920 ft | 205 kts | 176° |
| 2026-04-17 11:12 | -12.99590 | -48.12910 | 9926 ft | 205 kts | 176° |
| 2026-04-17 11:12 | -13.01009 | -48.12810 | 9927 ft | 205 kts | 176° |
| 2026-04-17 11:12 | -13.02428 | -48.12708 | 9924 ft | 205 kts | 176° |
| 2026-04-17 11:13 | -13.03846 | -48.12609 | 9923 ft | 205 kts | 176° |
| 2026-04-17 11:13 | -13.05264 | -48.12509 | 9924 ft | 205 kts | 176° |
| 2026-04-17 11:13 | -13.06682 | -48.12408 | 9922 ft | 204 kts | 176° |
| 2026-04-17 11:13 | -13.08097 | -48.12309 | 9927 ft | 205 kts | 176° |
| 2026-04-17 11:14 | -13.09517 | -48.12207 | 9927 ft | 205 kts | 176° |
| 2026-04-17 11:14 | -13.10936 | -48.12109 | 9925 ft | 205 kts | 176° |
| 2026-04-17 11:14 | -13.12353 | -48.12007 | 9924 ft | 205 kts | 176° |
| 2026-04-17 11:14 | -13.13771 | -48.11907 | 9926 ft | 205 kts | 176° |
| 2026-04-17 11:15 | -13.15190 | -48.11806 | 9928 ft | 205 kts | 176° |
| 2026-04-17 11:15 | -13.16608 | -48.11705 | 9926 ft | 204 kts | 176° |
| 2026-04-17 11:15 | -13.18021 | -48.11605 | 9927 ft | 204 kts | 176° |
| 2026-04-17 11:15 | -13.19440 | -48.11506 | 9926 ft | 204 kts | 176° |
| 2026-04-17 11:16 | -13.20853 | -48.11405 | 9929 ft | 204 kts | 176° |
| 2026-04-17 11:16 | -13.22266 | -48.11305 | 9927 ft | 204 kts | 176° |
| 2026-04-17 11:16 | -13.23681 | -48.11205 | 9926 ft | 204 kts | 176° |
| 2026-04-17 11:16 | -13.25092 | -48.11105 | 9928 ft | 204 kts | 176° |
| 2026-04-17 11:17 | -13.26506 | -48.11005 | 9924 ft | 204 kts | 176° |
| 2026-04-17 11:17 | -13.27916 | -48.10905 | 9928 ft | 204 kts | 176° |
| 2026-04-17 11:17 | -13.29328 | -48.10805 | 9923 ft | 204 kts | 176° |
| 2026-04-17 11:17 | -13.30739 | -48.10705 | 9928 ft | 204 kts | 176° |
| 2026-04-17 11:18 | -13.32149 | -48.10605 | 9927 ft | 203 kts | 176° |
| 2026-04-17 11:18 | -13.33558 | -48.10505 | 9927 ft | 203 kts | 177° |
| 2026-04-17 11:18 | -13.34966 | -48.10406 | 9930 ft | 203 kts | 176° |
| 2026-04-17 11:18 | -13.36374 | -48.10305 | 9927 ft | 203 kts | 176° |
| 2026-04-17 11:19 | -13.37784 | -48.10205 | 9927 ft | 204 kts | 176° |
| 2026-04-17 11:19 | -13.39195 | -48.10107 | 9924 ft | 204 kts | 177° |
| 2026-04-17 11:19 | -13.40609 | -48.10010 | 9929 ft | 204 kts | 177° |
| 2026-04-17 11:19 | -13.42020 | -48.09904 | 9938 ft | 205 kts | 176° |
| 2026-04-17 11:20 | -13.43445 | -48.09801 | 9931 ft | 206 kts | 176° |
| 2026-04-17 11:20 | -13.44873 | -48.09700 | 9932 ft | 207 kts | 177° |
| 2026-04-17 11:20 | -13.46302 | -48.09603 | 9930 ft | 206 kts | 177° |
| 2026-04-17 11:20 | -13.47723 | -48.09501 | 9926 ft | 205 kts | 177° |
| 2026-04-17 11:21 | -13.49146 | -48.09400 | 9926 ft | 205 kts | 177° |
| 2026-04-17 11:21 | -13.50567 | -48.09300 | 9926 ft | 205 kts | 177° |
| 2026-04-17 11:21 | -13.51988 | -48.09198 | 9926 ft | 205 kts | 177° |
| 2026-04-17 11:21 | -13.53409 | -48.09097 | 9932 ft | 205 kts | 177° |
| 2026-04-17 11:22 | -13.54834 | -48.08996 | 9927 ft | 206 kts | 177° |
| 2026-04-17 11:22 | -13.56255 | -48.08895 | 9929 ft | 205 kts | 177° |
| 2026-04-17 11:22 | -13.57678 | -48.08794 | 9930 ft | 205 kts | 177° |
| 2026-04-17 11:22 | -13.59100 | -48.08692 | 9924 ft | 205 kts | 177° |
| 2026-04-17 11:23 | -13.60522 | -48.08592 | 9925 ft | 205 kts | 177° |
| 2026-04-17 11:23 | -13.61943 | -48.08491 | 9927 ft | 205 kts | 177° |
| 2026-04-17 11:23 | -13.63367 | -48.08390 | 9926 ft | 206 kts | 177° |
| 2026-04-17 11:23 | -13.64791 | -48.08288 | 9931 ft | 206 kts | 177° |
| 2026-04-17 11:24 | -13.66217 | -48.08187 | 9928 ft | 206 kts | 177° |
| 2026-04-17 11:24 | -13.67643 | -48.08086 | 9928 ft | 206 kts | 177° |
| 2026-04-17 11:24 | -13.69068 | -48.07985 | 9929 ft | 206 kts | 177° |
| 2026-04-17 11:24 | -13.70493 | -48.07883 | 9926 ft | 206 kts | 177° |
| 2026-04-17 11:25 | -13.71919 | -48.07782 | 9930 ft | 206 kts | 177° |
| 2026-04-17 11:25 | -13.73349 | -48.07680 | 9928 ft | 207 kts | 177° |
| 2026-04-17 11:25 | -13.74779 | -48.07578 | 9924 ft | 206 kts | 177° |
| 2026-04-17 11:25 | -13.76207 | -48.07478 | 9929 ft | 207 kts | 177° |
| 2026-04-17 11:26 | -13.77639 | -48.07375 | 9928 ft | 206 kts | 177° |
| 2026-04-17 11:26 | -13.79071 | -48.07273 | 9931 ft | 207 kts | 177° |
| 2026-04-17 11:26 | -13.80504 | -48.07171 | 9928 ft | 207 kts | 177° |
| 2026-04-17 11:26 | -13.81934 | -48.07069 | 9927 ft | 206 kts | 177° |
| 2026-04-17 11:27 | -13.83368 | -48.06967 | 9924 ft | 207 kts | 177° |
| 2026-04-17 11:27 | -13.84801 | -48.06865 | 9927 ft | 207 kts | 177° |
| 2026-04-17 11:27 | -13.86238 | -48.06764 | 9935 ft | 207 kts | 177° |
| 2026-04-17 11:27 | -13.87672 | -48.06662 | 9927 ft | 207 kts | 177° |
| 2026-04-17 11:28 | -13.89102 | -48.06558 | 9926 ft | 207 kts | 177° |
| 2026-04-17 11:28 | -13.90539 | -48.06456 | 9932 ft | 207 kts | 177° |
| 2026-04-17 11:28 | -13.91975 | -48.06355 | 9930 ft | 207 kts | 177° |
| 2026-04-17 11:28 | -13.93413 | -48.06253 | 9951 ft | 208 kts | 178° |
| 2026-04-17 11:29 | -13.94853 | -48.06150 | 9950 ft | 209 kts | 178° |
| 2026-04-17 11:29 | -13.96301 | -48.06047 | 9947 ft | 209 kts | 178° |
| 2026-04-17 11:29 | -13.97745 | -48.05945 | 9946 ft | 208 kts | 178° |
| 2026-04-17 11:29 | -13.99185 | -48.05840 | 9948 ft | 208 kts | 178° |
| 2026-04-17 11:30 | -14.00625 | -48.05738 | 9944 ft | 208 kts | 178° |
| 2026-04-17 11:30 | -14.02064 | -48.05635 | 9945 ft | 208 kts | 178° |
| 2026-04-17 11:30 | -14.03504 | -48.05533 | 9945 ft | 208 kts | 178° |
| 2026-04-17 11:30 | -14.04947 | -48.05431 | 9949 ft | 208 kts | 178° |
| 2026-04-17 11:31 | -14.06391 | -48.05329 | 9943 ft | 209 kts | 178° |
| 2026-04-17 11:31 | -14.07839 | -48.05225 | 9946 ft | 209 kts | 178° |
| 2026-04-17 11:31 | -14.09289 | -48.05120 | 9941 ft | 209 kts | 178° |
| 2026-04-17 11:31 | -14.10737 | -48.05017 | 9952 ft | 210 kts | 178° |
| 2026-04-17 11:32 | -14.12192 | -48.04914 | 9946 ft | 210 kts | 178° |
| 2026-04-17 11:32 | -14.13643 | -48.04810 | 9948 ft | 209 kts | 178° |
| 2026-04-17 11:32 | -14.15094 | -48.04706 | 9951 ft | 210 kts | 178° |
| 2026-04-17 11:32 | -14.16549 | -48.04603 | 9949 ft | 211 kts | 178° |
| 2026-04-17 11:33 | -14.18007 | -48.04497 | 9946 ft | 210 kts | 178° |
| 2026-04-17 11:33 | -14.19460 | -48.04394 | 9953 ft | 210 kts | 178° |
| 2026-04-17 11:33 | -14.20926 | -48.04291 | 9956 ft | 211 kts | 178° |
| 2026-04-17 11:33 | -14.22392 | -48.04187 | 9940 ft | 213 kts | 178° |
| 2026-04-17 11:34 | -14.23853 | -48.04081 | 9949 ft | 210 kts | 178° |
| 2026-04-17 11:34 | -14.25314 | -48.03977 | 9952 ft | 212 kts | 178° |
| 2026-04-17 11:34 | -14.26782 | -48.03874 | 9941 ft | 212 kts | 178° |
| 2026-04-17 11:34 | -14.28243 | -48.03767 | 9955 ft | 211 kts | 178° |
| 2026-04-17 11:35 | -14.29709 | -48.03664 | 9943 ft | 211 kts | 178° |
| 2026-04-17 11:35 | -14.31176 | -48.03559 | 9941 ft | 212 kts | 178° |
| 2026-04-17 11:35 | -14.32645 | -48.03449 | 9944 ft | 211 kts | 178° |
| 2026-04-17 11:35 | -14.34108 | -48.03346 | 9964 ft | 212 kts | 178° |
| 2026-04-17 11:36 | -14.35598 | -48.03241 | 9948 ft | 216 kts | 178° |
| 2026-04-17 11:36 | -14.37083 | -48.03137 | 9957 ft | 215 kts | 178° |
| 2026-04-17 11:36 | -14.38586 | -48.03033 | 9958 ft | 220 kts | 179° |
| 2026-04-17 11:36 | -14.40090 | -48.02924 | 9949 ft | 215 kts | 178° |
| 2026-04-17 11:37 | -14.41575 | -48.02812 | 9944 ft | 212 kts | 178° |
| 2026-04-17 11:37 | -14.43035 | -48.02709 | 9945 ft | 210 kts | 178° |
| 2026-04-17 11:37 | -14.44489 | -48.02603 | 9946 ft | 209 kts | 178° |
| 2026-04-17 11:37 | -14.45941 | -48.02501 | 9947 ft | 209 kts | 178° |
| 2026-04-17 11:38 | -14.47388 | -48.02401 | 9952 ft | 209 kts | 178° |
| 2026-04-17 11:38 | -14.48862 | -48.02295 | 9953 ft | 215 kts | 178° |
| 2026-04-17 11:38 | -14.50353 | -48.02189 | 9948 ft | 216 kts | 178° |
| 2026-04-17 11:38 | -14.51837 | -48.02082 | 9962 ft | 214 kts | 178° |
| 2026-04-17 11:39 | -14.53329 | -48.01973 | 9958 ft | 216 kts | 178° |
| 2026-04-17 11:39 | -14.54824 | -48.01865 | 9972 ft | 216 kts | 178° |
| 2026-04-17 11:39 | -14.56352 | -48.01753 | 9960 ft | 224 kts | 178° |
| 2026-04-17 11:39 | -14.57899 | -48.01652 | 9954 ft | 223 kts | 178° |
| 2026-04-17 11:40 | -14.59423 | -48.01533 | 9968 ft | 219 kts | 178° |
| 2026-04-17 11:40 | -14.60942 | -48.01430 | 9971 ft | 220 kts | 178° |
| 2026-04-17 11:40 | -14.62466 | -48.01324 | 9969 ft | 220 kts | 178° |
| 2026-04-17 11:40 | -14.63985 | -48.01214 | 9963 ft | 218 kts | 178° |
| 2026-04-17 11:41 | -14.65484 | -48.01102 | 9957 ft | 215 kts | 178° |
| 2026-04-17 11:41 | -14.66970 | -48.00994 | 9962 ft | 214 kts | 178° |
| 2026-04-17 11:41 | -14.68444 | -48.00890 | 9958 ft | 212 kts | 178° |
| 2026-04-17 11:41 | -14.69916 | -48.00782 | 9962 ft | 214 kts | 178° |
| 2026-04-17 11:42 | -14.71392 | -48.00678 | 9958 ft | 213 kts | 179° |
| 2026-04-17 11:42 | -14.72852 | -48.00579 | 9965 ft | 210 kts | 178° |
| 2026-04-17 11:42 | -14.74315 | -48.00469 | 9974 ft | 212 kts | 178° |
| 2026-04-17 11:42 | -14.75775 | -48.00364 | 9972 ft | 210 kts | 179° |
| 2026-04-17 11:43 | -14.77240 | -48.00256 | 9973 ft | 213 kts | 179° |
| 2026-04-17 11:43 | -14.78719 | -48.00156 | 9975 ft | 215 kts | 178° |
| 2026-04-17 11:43 | -14.80215 | -48.00045 | 9966 ft | 215 kts | 179° |
| 2026-04-17 11:43 | -14.81702 | -47.99939 | 9967 ft | 214 kts | 179° |
| 2026-04-17 11:44 | -14.83184 | -47.99836 | 9970 ft | 213 kts | 178° |
| 2026-04-17 11:44 | -14.84655 | -47.99724 | 9963 ft | 212 kts | 178° |
| 2026-04-17 11:44 | -14.86127 | -47.99613 | 9976 ft | 213 kts | 178° |
| 2026-04-17 11:44 | -14.87604 | -47.99513 | 9975 ft | 215 kts | 178° |
| 2026-04-17 11:45 | -14.89086 | -47.99411 | 9965 ft | 212 kts | 178° |
| 2026-04-17 11:45 | -14.90559 | -47.99307 | 9971 ft | 213 kts | 178° |
| 2026-04-17 11:45 | -14.92036 | -47.99199 | 9964 ft | 212 kts | 178° |
| 2026-04-17 11:45 | -14.93499 | -47.99089 | 9963 ft | 212 kts | 178° |
| 2026-04-17 11:46 | -14.94962 | -47.98988 | 9978 ft | 212 kts | 179° |
| 2026-04-17 11:46 | -14.96433 | -47.98881 | 9971 ft | 213 kts | 178° |
| 2026-04-17 11:46 | -14.97911 | -47.98773 | 9967 ft | 214 kts | 178° |
| 2026-04-17 11:46 | -14.99393 | -47.98664 | 9965 ft | 214 kts | 178° |
| 2026-04-17 11:47 | -15.00869 | -47.98560 | 9972 ft | 213 kts | 178° |
| 2026-04-17 11:47 | -15.02351 | -47.98458 | 9974 ft | 215 kts | 178° |
| 2026-04-17 11:47 | -15.03845 | -47.98351 | 9976 ft | 216 kts | 178° |
| 2026-04-17 11:47 | -15.05339 | -47.98240 | 9975 ft | 213 kts | 178° |
| 2026-04-17 11:48 | -15.06820 | -47.98129 | 9985 ft | 215 kts | 179° |
| 2026-04-17 11:48 | -15.08297 | -47.98029 | 9979 ft | 212 kts | 178° |
| 2026-04-17 11:48 | -15.09792 | -47.97919 | 9978 ft | 219 kts | 177° |
| 2026-04-17 11:48 | -15.11293 | -47.97808 | 9969 ft | 213 kts | 178° |
| 2026-04-17 11:49 | -15.12761 | -47.97705 | 9981 ft | 212 kts | 178° |
| 2026-04-17 11:49 | -15.14239 | -47.97602 | 9966 ft | 216 kts | 178° |
| 2026-04-17 11:49 | -15.15748 | -47.97487 | 9962 ft | 217 kts | 178° |
| 2026-04-17 11:49 | -15.17238 | -47.97381 | 9986 ft | 215 kts | 178° |
| 2026-04-17 11:50 | -15.18738 | -47.97272 | 9974 ft | 217 kts | 178° |
| 2026-04-17 11:50 | -15.20237 | -47.97166 | 9968 ft | 214 kts | 178° |
| 2026-04-17 11:50 | -15.21710 | -47.97066 | 9966 ft | 211 kts | 178° |
| 2026-04-17 11:50 | -15.23180 | -47.96957 | 9967 ft | 215 kts | 178° |
| 2026-04-17 11:51 | -15.24624 | -47.97146 | 9975 ft | 208 kts | 205° |
| 2026-04-17 11:51 | -15.25854 | -47.97904 | 9978 ft | 205 kts | 213° |
| 2026-04-17 11:51 | -15.27108 | -47.98612 | 9985 ft | 209 kts | 208° |
| 2026-04-17 11:51 | -15.28442 | -47.99242 | 9993 ft | 215 kts | 206° |
| 2026-04-17 11:52 | -15.29815 | -47.99874 | 9974 ft | 214 kts | 206° |
| 2026-04-17 11:52 | -15.31159 | -48.00494 | 9980 ft | 210 kts | 206° |
| 2026-04-17 11:52 | -15.32497 | -48.01113 | 9976 ft | 212 kts | 206° |
| 2026-04-17 11:52 | -15.33836 | -48.01743 | 9973 ft | 212 kts | 206° |
| 2026-04-17 11:53 | -15.35165 | -48.02371 | 9979 ft | 209 kts | 207° |
| 2026-04-17 11:53 | -15.36493 | -48.02998 | 9979 ft | 210 kts | 205° |
| 2026-04-17 11:53 | -15.37817 | -48.03606 | 9980 ft | 208 kts | 206° |
| 2026-04-17 11:53 | -15.39141 | -48.04224 | 9977 ft | 210 kts | 205° |
| 2026-04-17 11:54 | -15.40463 | -48.04839 | 9983 ft | 207 kts | 206° |
| 2026-04-17 11:54 | -15.41778 | -48.05466 | 9971 ft | 208 kts | 206° |
| 2026-04-17 11:54 | -15.43092 | -48.06076 | 9977 ft | 209 kts | 205° |
| 2026-04-17 11:54 | -15.44422 | -48.06694 | 9993 ft | 210 kts | 207° |
| 2026-04-17 11:55 | -15.45750 | -48.07331 | 9976 ft | 209 kts | 206° |
| 2026-04-17 11:55 | -15.47069 | -48.07942 | 9979 ft | 207 kts | 206° |
| 2026-04-17 11:55 | -15.48376 | -48.08550 | 9974 ft | 206 kts | 206° |
| 2026-04-17 11:55 | -15.49673 | -48.09158 | 9977 ft | 205 kts | 206° |
| 2026-04-17 11:56 | -15.50968 | -48.09765 | 9974 ft | 204 kts | 206° |
| 2026-04-17 11:56 | -15.52276 | -48.10379 | 9840 ft | 210 kts | 206° |
| 2026-04-17 11:56 | -15.53608 | -48.11004 | 9677 ft | 209 kts | 206° |
| 2026-04-17 11:56 | -15.54921 | -48.11618 | 9532 ft | 206 kts | 206° |
| 2026-04-17 11:57 | -15.56222 | -48.12227 | 9372 ft | 205 kts | 206° |
| 2026-04-17 11:57 | -15.57521 | -48.12836 | 9227 ft | 205 kts | 206° |
| 2026-04-17 11:57 | -15.58818 | -48.13443 | 9082 ft | 205 kts | 206° |
| 2026-04-17 11:57 | -15.60114 | -48.14052 | 8933 ft | 205 kts | 206° |
| 2026-04-17 11:58 | -15.61406 | -48.14658 | 8789 ft | 204 kts | 206° |
| 2026-04-17 11:58 | -15.62699 | -48.15265 | 8638 ft | 205 kts | 206° |
| 2026-04-17 11:58 | -15.63992 | -48.15870 | 8499 ft | 205 kts | 206° |
| 2026-04-17 11:58 | -15.65290 | -48.16480 | 8350 ft | 205 kts | 206° |
| 2026-04-17 11:59 | -15.66587 | -48.17089 | 8211 ft | 205 kts | 206° |
| 2026-04-17 11:59 | -15.67887 | -48.17699 | 8071 ft | 206 kts | 206° |
| 2026-04-17 11:59 | -15.69187 | -48.18310 | 7923 ft | 205 kts | 206° |
| 2026-04-17 11:59 | -15.70485 | -48.18920 | 7779 ft | 205 kts | 206° |
| 2026-04-17 12:00 | -15.71783 | -48.19529 | 7634 ft | 205 kts | 206° |
| 2026-04-17 12:00 | -15.73082 | -48.20137 | 7495 ft | 205 kts | 206° |
| 2026-04-17 12:00 | -15.74382 | -48.20749 | 7350 ft | 206 kts | 205° |
| 2026-04-17 12:00 | -15.75683 | -48.21361 | 7209 ft | 206 kts | 205° |
| 2026-04-17 12:01 | -15.76983 | -48.21971 | 7074 ft | 205 kts | 205° |
| 2026-04-17 12:01 | -15.78274 | -48.22556 | 7015 ft | 200 kts | 200° |
| 2026-04-17 12:01 | -15.79664 | -48.22728 | 7005 ft | 206 kts | 176° |
| 2026-04-17 12:01 | -15.81100 | -48.22536 | 6908 ft | 210 kts | 173° |
| 2026-04-17 12:02 | -15.82536 | -48.22342 | 6748 ft | 206 kts | 173° |
| 2026-04-17 12:02 | -15.83919 | -48.22031 | 6577 ft | 203 kts | 157° |
| 2026-04-17 12:02 | -15.85075 | -48.21244 | 6516 ft | 196 kts | 136° |
| 2026-04-17 12:02 | -15.85871 | -48.20134 | 6518 ft | 192 kts | 116° |
| 2026-04-17 12:03 | -15.86429 | -48.18885 | 6524 ft | 190 kts | 115° |
| 2026-04-17 12:03 | -15.86993 | -48.17653 | 6524 ft | 189 kts | 115° |
| 2026-04-17 12:03 | -15.87547 | -48.16428 | 6527 ft | 187 kts | 113° |
| 2026-04-17 12:03 | -15.87794 | -48.15130 | 6531 ft | 184 kts | 87° |
| 2026-04-17 12:04 | -15.87453 | -48.13866 | 6537 ft | 183 kts | 61° |
| 2026-04-17 12:04 | -15.87056 | -48.12640 | 6556 ft | 183 kts | 91° |
| 2026-04-17 12:04 | -15.87419 | -48.11386 | 6566 ft | 183 kts | 106° |
| 2026-04-17 12:04 | -15.87465 | -48.10079 | 6565 ft | 184 kts | 85° |
| 2026-04-17 12:05 | -15.87390 | -48.08720 | 6437 ft | 193 kts | 86° |
| 2026-04-17 12:05 | -15.87301 | -48.07307 | 6194 ft | 199 kts | 85° |
| 2026-04-17 12:05 | -15.87202 | -48.05888 | 5944 ft | 187 kts | 85° |
| 2026-04-17 12:05 | -15.87132 | -48.04725 | 5734 ft | 146 kts | 85° |
| 2026-04-17 12:06 | -15.87058 | -48.03699 | 5562 ft | 141 kts | 85° |
| 2026-04-17 12:06 | -15.86995 | -48.02693 | 5380 ft | 138 kts | 85° |
| 2026-04-17 12:06 | -15.86934 | -48.01695 | 5214 ft | 139 kts | 85° |
| 2026-04-17 12:06 | -15.86869 | -48.00718 | 5037 ft | 126 kts | 85° |
| 2026-04-17 12:07 | -15.86822 | -47.99914 | 4901 ft | 105 kts | 83° |
| 2026-04-17 12:07 | -15.86762 | -47.99126 | 4752 ft | 110 kts | 86° |
| 2026-04-17 12:07 | -15.86721 | -47.98364 | 4618 ft | 102 kts | 85° |
| 2026-04-17 12:07 | -15.86674 | -47.97642 | 4490 ft | 101 kts | 84° |
| 2026-04-17 12:08 | -15.86625 | -47.96911 | 4353 ft | 103 kts | 85° |
| 2026-04-17 12:08 | -15.86579 | -47.96178 | 4214 ft | 101 kts | 86° |
| 2026-04-17 12:08 | -15.86533 | -47.95447 | 4065 ft | 102 kts | 86° |
| 2026-04-17 12:08 | -15.86486 | -47.94702 | 3914 ft | 105 kts | 86° |
| 2026-04-17 12:09 | -15.86433 | -47.93938 | 3756 ft | 106 kts | 85° |
| 2026-04-17 12:09 | -15.86388 | -47.93189 | 3598 ft | 103 kts | 86° |
| 2026-04-17 12:09 | -15.86336 | -47.92458 | 3465 ft | 97 kts | 87° |
| 2026-04-17 12:09 | -15.86302 | -47.91879 | 3461 ft | 61 kts | 86° |
| 2026-04-17 12:10 | -15.86279 | -47.91521 | 3460 ft | 33 kts | 87° |
| 2026-04-17 12:10 | -15.86321 | -47.91374 | 3461 ft | 21 kts | 206° |
| 2026-04-17 12:10 | -15.86390 | -47.91465 | 3460 ft | 6 kts | 234° |
| 2026-04-17 12:10 | -15.86431 | -47.91504 | 3461 ft | 10 kts | 183° |
| 2026-04-17 12:11 | -15.86467 | -47.91453 | 3464 ft | 11 kts | 86° |
| 2026-04-17 12:11 | -15.86461 | -47.91365 | 3464 ft | 14 kts | 86° |
| 2026-04-17 12:11 | -15.86456 | -47.91275 | 3465 ft | 11 kts | 86° |
| 2026-04-17 12:12 | -15.86448 | -47.91115 | 3467 ft | 11 kts | 102° |
| 2026-04-17 12:12 | -15.86503 | -47.91089 | 3472 ft | 8 kts | 176° |
| 2026-04-17 12:12 | -15.86550 | -47.91069 | 3474 ft | 7 kts | 101° |
| 2026-04-17 12:12 | -15.86547 | -47.91010 | 3475 ft | 9 kts | 87° |
| 2026-04-17 12:13 | -15.86553 | -47.90944 | 3474 ft | 9 kts | 148° |
| 2026-04-17 12:13 | -15.86627 | -47.90937 | 3477 ft | 12 kts | 176° |
| 2026-04-17 12:13 | -15.86664 | -47.90896 | 3478 ft | 6 kts | 86° |
| 2026-04-17 12:13 | -15.86664 | -47.90891 | 3478 ft | 0 kts | 86° |